You are not logged in, Click here to log in
ICAO: ZSPD Country: 中國上海市浦東新區
Latitude: 31.1443 Longitude: 121.808
Total Arrivals: 88 Total Departures: 85
Latest Arrival: FM9302 (ZGGG-ZSPD)CHU. CHUHAO Latest Departure: CZ6578 (ZSPD-ZUGY)CHU. CHUHAO
Scenery:
METAR : ZSPD 182130Z 05005MPS 010V070 9999 FEW015 27/25 Q1008 NOSIG

上海浦東國際機場PVG